createdAt,value
2018-01-06T00:00:00.794Z,46.97
2018-01-06T00:02:28.301Z,53.63
2018-01-06T00:04:56.648Z,51.70
2018-01-06T00:07:24.120Z,52.57
2018-01-06T00:09:51.583Z,51.40
2018-01-06T00:12:19.048Z,50.90
2018-01-06T00:14:46.558Z,50.53
2018-01-06T00:17:14.223Z,51.93
2018-01-06T00:19:41.748Z,49.10
2018-01-06T00:22:09.219Z,49.40
2018-01-06T00:24:37.499Z,50.00
2018-01-06T00:27:04.963Z,51.77
2018-01-06T00:29:32.465Z,49.33
2018-01-06T00:32:00.029Z,53.43
2018-01-06T00:34:27.507Z,58.10
2018-01-06T00:36:54.963Z,62.83
2018-01-06T00:39:22.507Z,58.23
2018-01-06T00:41:49.974Z,59.40
2018-01-06T00:44:17.728Z,57.00
2018-01-06T00:46:45.226Z,59.13
2018-01-06T00:49:12.700Z,60.40
2018-01-06T00:51:40.253Z,61.70
2018-01-06T00:54:08.438Z,66.60
2018-01-06T00:56:36.007Z,64.10
2018-01-06T00:59:03.525Z,63.17
2018-01-06T01:01:31.056Z,66.00
2018-01-06T01:03:58.519Z,59.83
2018-01-06T01:06:26.264Z,61.07
2018-01-06T01:08:53.777Z,57.17
2018-01-06T01:11:21.237Z,55.17
2018-01-06T01:13:48.768Z,55.77
2018-01-06T01:16:16.401Z,54.97
2018-01-06T01:18:43.891Z,53.37
2018-01-06T01:21:11.438Z,57.07
2018-01-06T01:23:38.957Z,54.37
2018-01-06T01:26:06.427Z,53.90
2018-01-06T01:28:34.062Z,50.07
2018-01-06T01:31:01.577Z,50.70
2018-01-06T01:33:29.086Z,52.80
2018-01-06T01:35:56.596Z,49.03
2018-01-06T01:38:24.048Z,49.00
2018-01-06T01:40:51.568Z,48.60
2018-01-06T01:43:19.043Z,49.10
2018-01-06T01:45:46.520Z,51.60
2018-01-06T01:48:13.990Z,52.23
2018-01-06T01:50:41.463Z,50.67
2018-01-06T01:53:08.928Z,51.60
2018-01-06T01:55:36.420Z,50.60
2018-01-06T01:58:03.887Z,49.63
2018-01-06T02:00:31.344Z,46.50
2018-01-06T02:02:58.853Z,46.23
2018-01-06T02:05:26.384Z,48.60
2018-01-06T02:07:53.871Z,44.33
2018-01-06T02:10:21.319Z,43.00
2018-01-06T02:12:49.007Z,39.93
2018-01-06T02:15:16.913Z,41.03
2018-01-06T02:17:44.437Z,39.73
2018-01-06T02:20:11.937Z,39.03
2018-01-06T02:22:39.390Z,37.73
2018-01-06T02:25:06.891Z,38.97
2018-01-06T02:27:34.347Z,41.63
2018-01-06T02:30:01.861Z,37.13
2018-01-06T02:32:29.315Z,38.20
2018-01-06T02:34:56.776Z,37.27
2018-01-06T02:37:24.264Z,38.40
2018-01-06T02:39:51.756Z,38.60
2018-01-06T02:42:19.220Z,38.33
2018-01-06T02:44:46.713Z,40.63
2018-01-06T02:47:14.196Z,40.87
2018-01-06T02:49:43.106Z,43.47
2018-01-06T02:52:10.566Z,41.30
2018-01-06T02:54:38.092Z,42.90
2018-01-06T02:57:05.552Z,39.67
2018-01-06T02:59:32.999Z,40.33
2018-01-06T03:02:00.471Z,39.47
2018-01-06T03:04:27.926Z,37.00
2018-01-06T03:06:55.421Z,37.20
2018-01-06T03:09:22.894Z,38.00
2018-01-06T03:11:50.541Z,32.60
2018-01-06T03:14:18.088Z,32.17
2018-01-06T03:16:45.540Z,32.20
2018-01-06T03:19:13.020Z,32.53
2018-01-06T03:21:40.518Z,33.17
2018-01-06T03:24:07.988Z,33.33
2018-01-06T03:26:35.648Z,30.83
2018-01-06T03:29:03.112Z,29.50
2018-01-06T03:31:30.615Z,29.40
2018-01-06T03:33:58.090Z,29.40
2018-01-06T03:36:25.709Z,28.50
2018-01-06T03:38:53.199Z,28.67
2018-01-06T03:41:20.668Z,29.70
2018-01-06T03:43:48.151Z,28.63
2018-01-06T03:46:15.742Z,25.47
2018-01-06T03:48:43.195Z,27.23
2018-01-06T03:51:10.857Z,28.67
2018-01-06T03:53:38.327Z,27.97
2018-01-06T03:56:06.687Z,27.43
2018-01-06T03:58:34.517Z,30.07
2018-01-06T04:01:01.976Z,32.13
2018-01-06T04:03:29.452Z,33.83
2018-01-06T04:05:56.914Z,37.13
2018-01-06T04:08:24.375Z,33.47
2018-01-06T04:10:51.886Z,38.00
2018-01-06T04:13:19.357Z,37.80
2018-01-06T04:15:46.806Z,36.07
2018-01-06T04:18:14.298Z,35.33
2018-01-06T04:20:41.760Z,35.57
2018-01-06T04:23:09.223Z,36.00
2018-01-06T04:25:36.690Z,37.53
2018-01-06T04:28:04.210Z,38.60
2018-01-06T04:30:31.691Z,39.07
2018-01-06T04:32:59.167Z,39.60
2018-01-06T04:35:26.641Z,39.70
2018-01-06T04:37:54.106Z,39.30
2018-01-06T04:40:21.581Z,39.30
2018-01-06T04:42:49.115Z,41.77
2018-01-06T04:45:16.696Z,39.20
2018-01-06T04:47:44.198Z,40.73
2018-01-06T04:50:11.668Z,41.23
2018-01-06T04:52:39.169Z,41.30
2018-01-06T04:55:06.631Z,43.63
2018-01-06T04:57:34.084Z,40.87
2018-01-06T05:00:01.542Z,39.63
2018-01-06T05:02:28.994Z,41.07
2018-01-06T05:04:56.455Z,41.30
2018-01-06T05:07:23.909Z,44.67
2018-01-06T05:09:51.389Z,44.23
2018-01-06T05:12:18.843Z,46.30
2018-01-06T05:14:46.311Z,42.90
2018-01-06T05:17:13.814Z,44.40
2018-01-06T05:19:41.311Z,43.67
2018-01-06T05:22:08.801Z,44.70
2018-01-06T05:24:36.257Z,41.57
2018-01-06T05:27:03.718Z,44.40
2018-01-06T05:29:31.191Z,45.50
2018-01-06T05:31:58.701Z,40.60
2018-01-06T05:34:26.164Z,44.00
2018-01-06T05:36:53.608Z,42.07
2018-01-06T05:39:21.088Z,42.07
2018-01-06T05:41:48.536Z,40.50
2018-01-06T05:44:16.181Z,42.60
2018-01-06T05:46:43.661Z,43.23
2018-01-06T05:49:11.116Z,46.50
2018-01-06T05:51:38.580Z,43.87
2018-01-06T05:54:06.051Z,41.50
2018-01-06T05:56:33.610Z,43.73
2018-01-06T05:59:01.107Z,43.40
2018-01-06T06:01:28.557Z,40.87
2018-01-06T06:03:56.023Z,39.20
2018-01-06T06:06:23.532Z,42.67
2018-01-06T06:08:50.985Z,46.47
2018-01-06T06:11:18.443Z,47.27
2018-01-06T06:13:45.910Z,48.03
2018-01-06T06:16:13.409Z,44.93
2018-01-06T06:18:40.870Z,45.93
2018-01-06T06:21:08.323Z,44.00
2018-01-06T06:23:35.780Z,49.43
2018-01-06T06:26:03.533Z,46.00
2018-01-06T06:28:31.000Z,44.43
2018-01-06T06:30:58.483Z,45.47
2018-01-06T06:33:25.939Z,40.77
2018-01-06T06:35:53.403Z,42.07
2018-01-06T06:38:20.900Z,44.97
2018-01-06T06:40:48.346Z,47.70
2018-01-06T06:43:15.803Z,48.10
2018-01-06T06:45:43.304Z,46.80
2018-01-06T06:48:10.768Z,46.93
2018-01-06T06:50:38.227Z,46.13
2018-01-06T06:53:05.841Z,47.73
2018-01-06T06:55:33.307Z,42.63
2018-01-06T06:58:00.772Z,42.00
2018-01-06T07:00:28.697Z,37.63
2018-01-06T07:02:56.163Z,35.47
2018-01-06T07:05:23.675Z,32.83
2018-01-06T07:07:51.124Z,33.50
2018-01-06T07:10:18.577Z,32.00
2018-01-06T07:12:46.466Z,33.40
2018-01-06T07:15:14.001Z,33.10
2018-01-06T07:17:41.536Z,32.20
2018-01-06T07:20:08.989Z,30.40
2018-01-06T07:22:36.565Z,28.50
2018-01-06T07:25:04.084Z,29.57
2018-01-06T07:27:31.535Z,27.90
2018-01-06T07:29:59.147Z,28.83
2018-01-06T07:32:26.622Z,28.43
2018-01-06T07:34:54.076Z,31.97
2018-01-06T07:37:21.537Z,30.47
2018-01-06T07:39:49.014Z,33.20
2018-01-06T07:42:16.455Z,31.37
2018-01-06T07:44:43.911Z,31.07
2018-01-06T07:47:11.496Z,31.23
2018-01-06T07:49:39.129Z,32.30
2018-01-06T07:52:06.581Z,30.10
2018-01-06T07:54:34.131Z,35.17
2018-01-06T07:57:01.576Z,33.47
2018-01-06T07:59:29.034Z,34.17
2018-01-06T08:01:56.492Z,34.83
2018-01-06T08:04:23.964Z,34.00
2018-01-06T08:06:51.502Z,35.80
2018-01-06T08:09:19.061Z,36.47
2018-01-06T08:11:46.508Z,37.03
2018-01-06T08:14:14.148Z,34.90
2018-01-06T08:16:41.604Z,34.07
2018-01-06T08:19:09.087Z,38.10
2018-01-06T08:21:36.552Z,36.80
2018-01-06T08:24:04.204Z,33.80
2018-01-06T08:26:31.611Z,35.33
2018-01-06T08:28:59.120Z,33.60
2018-01-06T08:31:26.570Z,34.80
2018-01-06T08:33:54.616Z,35.67
2018-01-06T08:36:22.113Z,35.97
2018-01-06T08:38:49.556Z,35.43
2018-01-06T08:41:17.020Z,35.60
2018-01-06T08:43:44.504Z,34.97
2018-01-06T08:46:11.975Z,35.17
2018-01-06T08:48:39.463Z,35.13
2018-01-06T08:51:06.924Z,35.90
2018-01-06T08:53:34.541Z,34.73
2018-01-06T08:56:02.004Z,36.80
2018-01-06T08:58:29.472Z,35.40
2018-01-06T09:00:58.157Z,35.40
2018-01-06T09:03:25.615Z,34.30
2018-01-06T09:05:53.109Z,32.23
2018-01-06T09:08:20.578Z,34.30
2018-01-06T09:10:48.286Z,34.70
2018-01-06T09:13:15.756Z,33.57
2018-01-06T09:15:43.212Z,31.03
2018-01-06T09:18:10.735Z,33.10
2018-01-06T09:20:38.215Z,31.40
2018-01-06T09:23:05.676Z,33.23
2018-01-06T09:25:33.193Z,33.43
2018-01-06T09:28:00.653Z,30.93
2018-01-06T09:30:28.135Z,30.57
2018-01-06T09:32:55.608Z,31.77
2018-01-06T09:35:23.076Z,30.20
2018-01-06T09:37:50.526Z,29.67
2018-01-06T09:40:18.308Z,32.17
2018-01-06T09:45:19.491Z,28.57
2018-01-06T09:47:46.999Z,29.63
2018-01-06T09:50:14.913Z,28.90
2018-01-06T09:52:42.948Z,30.60
2018-01-06T09:55:10.395Z,30.03
2018-01-06T09:57:37.864Z,30.27
2018-01-06T10:00:06.657Z,28.63
2018-01-06T10:02:34.107Z,30.10
2018-01-06T10:05:01.563Z,29.47
2018-01-06T10:07:29.024Z,29.43
2018-01-06T10:09:56.472Z,30.73
2018-01-06T10:12:25.069Z,29.90
2018-01-06T10:14:52.515Z,31.87
2018-01-06T10:17:19.987Z,27.70
2018-01-06T10:19:47.451Z,30.53
2018-01-06T10:22:14.966Z,28.57
2018-01-06T10:24:42.456Z,27.03
2018-01-06T10:27:09.923Z,27.17
2018-01-06T10:29:37.379Z,28.10
2018-01-06T10:32:04.877Z,25.00
2018-01-06T10:34:32.337Z,28.03
2018-01-06T10:36:59.820Z,25.13
2018-01-06T10:39:27.363Z,24.40
2018-01-06T10:41:54.854Z,24.07
2018-01-06T10:44:22.316Z,23.50
2018-01-06T10:46:49.791Z,24.63
2018-01-06T10:49:18.310Z,23.20
2018-01-06T10:51:45.768Z,23.20
2018-01-06T10:54:13.243Z,24.00
2018-01-06T10:56:40.761Z,22.80
2018-01-06T10:59:08.353Z,22.40
2018-01-06T11:01:41.453Z,22.50
2018-01-06T11:04:08.959Z,24.27
2018-01-06T11:06:36.424Z,24.10
2018-01-06T11:09:04.161Z,22.27
2018-01-06T11:11:31.644Z,21.37
2018-01-06T11:13:59.137Z,21.10
2018-01-06T11:16:26.688Z,21.63
2018-01-06T11:18:54.442Z,22.33
2018-01-06T11:21:21.924Z,24.00
2018-01-06T11:23:49.424Z,23.57
2018-01-06T11:26:16.904Z,23.07
2018-01-06T11:28:44.420Z,25.07
2018-01-06T11:31:11.894Z,24.43
2018-01-06T11:33:39.472Z,26.03
2018-01-06T11:36:07.031Z,26.57
2018-01-06T11:38:34.512Z,25.60
2018-01-06T11:41:02.028Z,26.63
2018-01-06T11:43:29.522Z,26.50
2018-01-06T11:45:56.996Z,26.67
2018-01-06T11:48:24.613Z,25.90
2018-01-06T11:50:52.104Z,28.07
2018-01-06T11:53:19.660Z,30.70
2018-01-06T11:55:47.158Z,29.93
2018-01-06T11:58:14.640Z,31.93
2018-01-06T12:00:42.144Z,30.90
2018-01-06T12:03:09.635Z,30.77
2018-01-06T12:05:37.104Z,30.83
2018-01-06T12:08:04.565Z,31.40
2018-01-06T12:10:32.060Z,30.03
2018-01-06T12:12:59.552Z,29.80
2018-01-06T12:15:27.084Z,30.50
2018-01-06T12:17:54.562Z,31.83
2018-01-06T12:20:22.069Z,32.20
2018-01-06T12:22:49.553Z,32.70
2018-01-06T12:25:17.112Z,32.57
2018-01-06T12:27:44.578Z,32.07
2018-01-06T12:30:12.046Z,31.67
2018-01-06T12:32:39.538Z,32.07
2018-01-06T12:35:06.991Z,31.40
2018-01-06T12:37:34.468Z,33.43
2018-01-06T12:40:01.953Z,35.20
2018-01-06T12:42:29.438Z,37.70
2018-01-06T12:44:56.907Z,39.70
2018-01-06T12:47:24.467Z,37.83
2018-01-06T12:49:51.988Z,40.83
2018-01-06T12:52:19.457Z,42.67
2018-01-06T12:54:46.948Z,44.47
2018-01-06T12:57:14.417Z,42.40
2018-01-06T12:59:41.920Z,44.00
2018-01-06T13:02:09.467Z,44.30
2018-01-06T13:04:36.937Z,46.77
2018-01-06T13:07:04.411Z,44.77
2018-01-06T13:09:31.894Z,46.03
2018-01-06T13:11:59.408Z,45.93
2018-01-06T13:14:26.959Z,41.60
2018-01-06T13:16:54.417Z,41.03
2018-01-06T13:19:21.877Z,39.27
2018-01-06T13:21:49.356Z,36.53
2018-01-06T13:24:16.823Z,37.97
2018-01-06T13:26:44.304Z,39.93
2018-01-06T13:29:11.794Z,37.70
2018-01-06T13:31:39.273Z,37.57
2018-01-06T13:34:06.748Z,38.20
2018-01-06T13:36:34.853Z,36.87
2018-01-06T13:39:02.361Z,36.20
2018-01-06T13:41:29.842Z,37.37
2018-01-06T13:43:57.318Z,37.60
2018-01-06T13:46:24.819Z,34.33
2018-01-06T13:48:52.333Z,38.00
2018-01-06T13:51:19.813Z,35.13
2018-01-06T13:53:47.302Z,34.90
2018-01-06T13:56:14.781Z,34.07
2018-01-06T13:58:42.329Z,36.23
2018-01-06T14:01:09.805Z,35.43
2018-01-06T14:03:37.281Z,36.30
2018-01-06T14:06:04.821Z,35.37
2018-01-06T14:08:32.337Z,33.67
2018-01-06T14:10:59.831Z,34.00
2018-01-06T14:13:27.312Z,34.57
2018-01-06T14:15:54.824Z,31.13
2018-01-06T14:18:22.299Z,36.10
2018-01-06T14:20:49.766Z,35.57
2018-01-06T14:23:17.256Z,35.63
2018-01-06T14:25:44.756Z,35.13
2018-01-06T14:28:13.104Z,38.83
2018-01-06T14:30:40.599Z,33.00
2018-01-06T14:33:08.067Z,36.27
2018-01-06T14:35:35.524Z,36.90
2018-01-06T14:38:03.049Z,37.93
2018-01-06T14:40:30.614Z,37.40
2018-01-06T14:42:58.289Z,38.70
2018-01-06T14:45:25.794Z,38.93
2018-01-06T14:47:53.259Z,38.87
2018-01-06T14:50:20.880Z,38.07
2018-01-06T14:52:48.381Z,42.80
2018-01-06T14:55:15.836Z,44.37
2018-01-06T14:57:43.336Z,43.23
2018-01-06T15:00:10.896Z,45.90
2018-01-06T15:02:38.379Z,45.20
2018-01-06T15:05:05.866Z,46.23
2018-01-06T15:07:33.384Z,46.70
2018-01-06T15:10:00.860Z,46.80
2018-01-06T15:12:28.337Z,46.90
2018-01-06T15:14:55.856Z,46.97
2018-01-06T15:17:23.437Z,49.07
2018-01-06T15:19:51.005Z,49.20
2018-01-06T15:22:18.469Z,49.90
2018-01-06T15:24:46.062Z,50.87
2018-01-06T15:27:13.548Z,49.57
2018-01-06T15:29:41.086Z,49.10
2018-01-06T15:32:08.584Z,49.13
2018-01-06T15:34:36.063Z,51.00
2018-01-06T15:37:03.546Z,52.97
2018-01-06T15:39:31.190Z,52.40
2018-01-06T15:41:58.682Z,51.50
2018-01-06T15:44:26.198Z,54.50
2018-01-06T15:46:53.723Z,52.60
2018-01-06T15:49:21.235Z,54.80
2018-01-06T15:51:48.742Z,55.27
2018-01-06T15:54:16.224Z,54.67
2018-01-06T15:56:43.701Z,54.50
2018-01-06T15:59:11.963Z,54.50
2018-01-06T16:01:39.460Z,54.20
2018-01-06T16:04:07.197Z,56.13
2018-01-06T16:06:34.749Z,55.63
2018-01-06T16:09:02.239Z,53.57
2018-01-06T16:11:29.724Z,57.03
2018-01-06T16:13:57.217Z,57.90
2018-01-06T16:16:24.744Z,55.13
2018-01-06T16:18:52.270Z,56.23
2018-01-06T16:21:19.854Z,55.73
2018-01-06T16:23:47.366Z,57.83
2018-01-06T16:26:14.843Z,61.73
2018-01-06T16:28:42.902Z,60.73
2018-01-06T16:31:10.356Z,57.90
2018-01-06T16:33:37.903Z,60.30
2018-01-06T16:36:05.866Z,57.70
2018-01-06T16:38:33.352Z,60.97
2018-01-06T16:41:01.101Z,64.10
2018-01-06T16:43:28.604Z,62.60
2018-01-06T16:45:56.144Z,58.80
2018-01-06T16:48:23.689Z,58.43
2018-01-06T16:50:51.168Z,60.30
2018-01-06T16:53:18.731Z,59.60
2018-01-06T16:55:46.996Z,57.50
2018-01-06T16:58:14.468Z,50.90
2018-01-06T17:00:41.958Z,53.27
2018-01-06T17:03:09.452Z,51.27
2018-01-06T17:05:36.952Z,51.33
2018-01-06T17:08:04.444Z,50.73
2018-01-06T17:10:32.085Z,52.17
2018-01-06T17:12:59.541Z,48.10
2018-01-06T17:15:27.019Z,50.43
2018-01-06T17:17:54.486Z,52.17
2018-01-06T17:20:22.013Z,52.20
2018-01-06T17:22:49.549Z,60.07
2018-01-06T17:25:17.050Z,56.10
2018-01-06T17:27:44.610Z,58.40
2018-01-06T17:36:10.526Z,59.23
2018-01-06T17:38:37.984Z,57.70
2018-01-06T17:41:05.521Z,56.27
2018-01-06T17:43:33.028Z,56.83
2018-01-06T17:46:00.511Z,54.40
2018-01-06T17:48:28.013Z,57.67
2018-01-06T17:50:55.973Z,57.40
2018-01-06T17:53:23.449Z,53.47
2018-01-06T17:55:50.957Z,54.67
2018-01-06T17:58:18.435Z,53.20
2018-01-06T18:00:45.958Z,53.40
2018-01-06T18:03:13.468Z,53.30
2018-01-06T18:05:40.946Z,51.80
2018-01-06T18:08:08.617Z,52.57
2018-01-06T18:10:36.138Z,53.97
2018-01-06T18:13:03.593Z,51.40
2018-01-06T18:15:31.061Z,53.63
2018-01-06T18:17:58.539Z,54.00
2018-01-06T18:20:26.032Z,52.17
2018-01-06T18:22:53.633Z,58.77
2018-01-06T18:25:21.126Z,55.70
2018-01-06T18:27:48.702Z,55.00
2018-01-06T18:30:16.194Z,52.90
2018-01-06T18:32:43.677Z,55.80
2018-01-06T18:35:11.165Z,53.60
2018-01-06T18:37:38.723Z,52.33
2018-01-06T18:40:06.210Z,56.40
2018-01-06T18:42:33.692Z,55.93
2018-01-06T18:45:01.173Z,54.27
2018-01-06T18:47:28.665Z,51.90
2018-01-06T18:49:56.655Z,53.53
2018-01-06T18:52:24.189Z,53.70
2018-01-06T18:54:51.694Z,51.97
2018-01-06T18:57:19.178Z,56.43
2018-01-06T18:59:46.664Z,52.10
2018-01-06T19:02:14.154Z,52.97
2018-01-06T19:04:41.704Z,56.60
2018-01-06T19:07:09.204Z,52.77
2018-01-06T19:09:36.986Z,51.60
2018-01-06T19:12:04.494Z,51.40
2018-01-06T19:14:32.053Z,49.93
2018-01-06T19:16:59.548Z,51.63
2018-01-06T19:19:27.028Z,52.53
2018-01-06T19:21:54.720Z,48.70
2018-01-06T19:24:22.248Z,47.07
2018-01-06T19:26:49.743Z,48.73
2018-01-06T19:29:17.329Z,51.20
2018-01-06T19:31:44.801Z,50.40
2018-01-06T19:34:12.447Z,51.37
2018-01-06T19:36:39.979Z,54.97
2018-01-06T19:39:07.460Z,54.77
2018-01-06T19:41:34.963Z,47.93
2018-01-06T19:44:02.445Z,48.80
2018-01-06T19:46:29.917Z,51.40
2018-01-06T19:48:57.431Z,52.03
2018-01-06T19:51:25.343Z,51.70
2018-01-06T19:53:52.907Z,48.87
2018-01-06T19:56:20.412Z,54.43
2018-01-06T19:58:47.901Z,52.90
2018-01-06T20:01:15.388Z,49.20
2018-01-06T20:03:42.958Z,53.00
2018-01-06T20:06:10.477Z,53.80
2018-01-06T20:08:38.030Z,49.63
2018-01-06T20:11:05.573Z,51.50
2018-01-06T20:13:33.045Z,49.90
2018-01-06T20:16:00.546Z,47.70
2018-01-06T20:18:28.063Z,45.20
2018-01-06T20:20:55.610Z,50.87
2018-01-06T20:23:23.175Z,49.60
2018-01-06T20:25:50.678Z,48.27
2018-01-06T20:28:18.224Z,52.50
2018-01-06T20:30:45.854Z,49.30
2018-01-06T20:33:13.385Z,51.27
2018-01-06T20:35:40.973Z,47.90
2018-01-06T20:38:08.583Z,48.47
2018-01-06T20:40:36.343Z,50.33
2018-01-06T20:43:04.005Z,49.93
2018-01-06T20:45:31.697Z,49.07
2018-01-06T20:47:59.223Z,51.80
2018-01-06T20:50:26.854Z,50.00
2018-01-06T20:52:54.529Z,49.57
2018-01-06T20:55:22.199Z,49.97
2018-01-06T20:57:49.981Z,51.80
2018-01-06T21:00:17.610Z,50.90
2018-01-06T21:02:45.234Z,49.33
2018-01-06T21:05:12.926Z,48.87
2018-01-06T21:07:40.542Z,47.13
2018-01-06T21:10:08.040Z,47.43
2018-01-06T21:12:36.316Z,47.90
2018-01-06T21:15:03.796Z,48.03
2018-01-06T21:17:31.287Z,48.70
2018-01-06T21:19:58.844Z,46.70
2018-01-06T21:22:26.337Z,47.73
2018-01-06T21:24:53.836Z,49.83
2018-01-06T21:27:21.369Z,43.03
2018-01-06T21:29:48.853Z,46.43
2018-01-06T21:32:17.334Z,47.17
2018-01-06T21:34:44.818Z,48.13
2018-01-06T21:37:12.389Z,43.80
2018-01-06T21:39:39.923Z,43.40
2018-01-06T21:42:07.511Z,35.47
2018-01-06T21:44:36.208Z,41.40
2018-01-06T21:47:03.677Z,42.60
2018-01-06T21:49:31.163Z,40.10
2018-01-06T21:51:58.839Z,41.47
2018-01-06T21:54:26.577Z,33.30
2018-01-06T21:56:54.044Z,30.20
2018-01-06T21:59:21.539Z,27.90
2018-01-06T22:01:49.029Z,29.90
2018-01-06T22:04:16.506Z,27.20
2018-01-06T22:06:43.999Z,28.23
2018-01-06T22:09:11.474Z,27.13
2018-01-06T22:11:38.968Z,27.47
2018-01-06T22:14:06.429Z,25.93
2018-01-06T22:16:33.896Z,26.13
2018-01-06T22:19:01.481Z,24.53
2018-01-06T22:21:28.997Z,25.90
2018-01-06T22:23:56.473Z,25.70
2018-01-06T22:26:23.960Z,25.63
2018-01-06T22:28:51.504Z,24.97
2018-01-06T22:31:18.992Z,25.27
2018-01-06T22:33:46.451Z,25.90
2018-01-06T22:36:13.996Z,23.70
2018-01-06T22:38:41.510Z,24.57
2018-01-06T22:41:08.969Z,22.07
2018-01-06T22:43:36.428Z,22.73
2018-01-06T22:46:03.914Z,24.80
2018-01-06T22:48:31.372Z,24.23
2018-01-06T22:50:58.924Z,21.83
2018-01-06T22:53:26.421Z,23.13
2018-01-06T22:55:53.901Z,22.80
2018-01-06T22:58:21.394Z,21.50
2018-01-06T23:00:49.797Z,23.20
2018-01-06T23:03:17.310Z,21.97
2018-01-06T23:05:44.777Z,22.27
2018-01-06T23:08:12.244Z,21.33
2018-01-06T23:10:39.711Z,22.30
2018-01-06T23:13:07.190Z,21.83
2018-01-06T23:15:34.645Z,22.40
2018-01-06T23:18:02.133Z,21.47
2018-01-06T23:20:29.591Z,20.57
2018-01-06T23:22:57.076Z,22.23
2018-01-06T23:25:24.577Z,23.03
2018-01-06T23:27:52.151Z,22.90
2018-01-06T23:30:19.629Z,23.40
2018-01-06T23:32:47.127Z,23.83
2018-01-06T23:35:14.613Z,23.13
2018-01-06T23:37:42.089Z,23.40
2018-01-06T23:40:09.584Z,23.93
2018-01-06T23:42:37.128Z,22.60
2018-01-06T23:45:04.602Z,25.87
2018-01-06T23:47:32.116Z,25.03
2018-01-06T23:49:59.596Z,24.97
2018-01-06T23:52:27.056Z,24.40
2018-01-06T23:54:54.531Z,25.67
2018-01-06T23:57:21.986Z,25.10
2018-01-06T23:59:49.452Z,25.07
